createdAt,value
2022-12-11T00:02:22.002Z,99317.59
2022-12-11T00:06:24.164Z,99312.59
2022-12-11T00:10:26.168Z,99306.75
2022-12-11T00:14:29.156Z,99301.72
2022-12-11T00:18:38.498Z,99302.94
2022-12-11T00:22:40.406Z,99305.34
2022-12-11T00:26:42.266Z,99310.88
2022-12-11T00:30:44.104Z,99316.47
2022-12-11T00:34:45.897Z,99305.38
2022-12-11T00:38:48.894Z,99309.34
2022-12-11T00:42:53.799Z,99316.84
2022-12-11T00:46:55.699Z,99306.28
2022-12-11T00:50:57.675Z,99310.72
2022-12-11T00:54:59.498Z,99301.28
2022-12-11T00:59:01.490Z,99313.25
2022-12-11T01:03:03.553Z,99318.38
2022-12-11T01:07:05.531Z,99313.91
2022-12-11T01:11:10.580Z,99315.56
2022-12-11T01:15:12.622Z,99326.56
2022-12-11T01:19:14.915Z,99318.72
2022-12-11T01:23:16.815Z,99319.81
2022-12-11T01:27:18.606Z,99334.00
2022-12-11T01:31:22.225Z,99320.50
2022-12-11T01:35:24.192Z,99321.06
2022-12-11T01:39:26.093Z,99313.91
2022-12-11T01:43:27.958Z,99320.81
2022-12-11T01:47:29.864Z,99330.66
2022-12-11T01:51:33.459Z,99324.94
2022-12-11T01:55:35.366Z,99321.75
2022-12-11T01:59:40.042Z,99321.34
2022-12-11T02:03:42.620Z,99315.34
2022-12-11T02:07:51.109Z,99307.53
2022-12-11T02:12:12.034Z,99315.78
2022-12-11T02:16:37.913Z,99315.47
2022-12-11T02:20:52.043Z,99307.53
2022-12-11T02:25:07.722Z,99309.56
2022-12-11T02:29:18.719Z,99306.31
2022-12-11T02:33:34.322Z,99298.53
2022-12-11T02:37:36.506Z,99293.09
2022-12-11T02:41:38.882Z,99299.88
2022-12-11T02:45:41.256Z,99293.69
2022-12-11T02:49:44.595Z,99300.19
2022-12-11T02:53:46.497Z,99299.50
2022-12-11T02:58:02.467Z,99309.41
2022-12-11T03:02:19.515Z,99309.56
2022-12-11T03:06:30.428Z,99301.84
2022-12-11T03:10:32.229Z,99313.34
2022-12-11T03:14:40.413Z,99305.16
2022-12-11T03:19:05.434Z,99301.03
2022-12-11T03:23:16.589Z,99306.31
2022-12-11T03:27:30.330Z,99313.66
2022-12-11T03:31:39.035Z,99305.97
2022-12-11T03:35:45.826Z,99317.44
2022-12-11T03:39:54.859Z,99319.16
2022-12-11T03:43:58.518Z,99306.13
2022-12-11T03:48:00.568Z,99320.41
2022-12-11T03:52:02.733Z,99311.50
2022-12-11T03:56:05.723Z,99316.69
2022-12-11T04:00:10.808Z,99310.44
2022-12-11T04:04:13.082Z,99308.97
2022-12-11T04:08:15.610Z,99310.75
2022-12-11T04:12:17.435Z,99305.94
2022-12-11T04:16:19.312Z,99306.97
2022-12-11T04:20:39.943Z,99318.09
2022-12-11T04:24:41.837Z,99317.56
2022-12-11T04:28:44.367Z,99327.50
2022-12-11T04:32:46.256Z,99315.34
2022-12-11T04:36:48.170Z,99316.97
2022-12-11T04:40:50.008Z,99306.69
2022-12-11T04:44:51.808Z,99296.41
2022-12-11T04:48:57.252Z,99302.16
2022-12-11T04:52:59.663Z,99295.38
2022-12-11T04:57:01.552Z,99293.03
2022-12-11T05:01:18.006Z,99300.50
2022-12-11T05:05:19.830Z,99293.13
2022-12-11T05:09:21.709Z,99286.75
2022-12-11T05:13:23.519Z,99287.56
2022-12-11T05:17:25.432Z,99288.44
2022-12-11T05:21:33.235Z,99283.06
2022-12-11T05:25:36.714Z,99283.13
2022-12-11T05:29:38.536Z,99275.97
2022-12-11T05:33:40.407Z,99294.69
2022-12-11T05:37:42.164Z,99293.13
2022-12-11T05:41:43.931Z,99279.28
2022-12-11T05:45:45.754Z,99269.78
2022-12-11T05:49:47.923Z,99270.78
2022-12-11T05:53:51.095Z,99291.22
2022-12-11T05:57:52.965Z,99281.44
2022-12-11T06:01:54.887Z,99283.41
2022-12-11T06:05:56.785Z,99278.56
2022-12-11T06:09:58.533Z,99275.09
2022-12-11T06:14:02.159Z,99273.75
2022-12-11T06:18:04.133Z,99269.50
2022-12-11T06:22:05.940Z,99279.31
2022-12-11T06:26:17.397Z,99275.75
2022-12-11T06:30:19.393Z,99283.53
2022-12-11T06:34:23.534Z,99288.03
2022-12-11T06:38:25.411Z,99299.72
2022-12-11T06:42:27.226Z,99286.19
2022-12-11T06:46:29.393Z,99301.00
2022-12-11T06:50:31.251Z,99293.69
2022-12-11T06:54:33.221Z,99290.38
2022-12-11T06:58:35.716Z,99293.06
2022-12-11T07:02:37.660Z,99292.06
2022-12-11T07:06:39.902Z,99307.72
2022-12-11T07:10:44.337Z,99310.19
2022-12-11T07:14:46.264Z,99303.06
2022-12-11T07:18:50.010Z,99312.84
2022-12-11T07:22:51.900Z,99301.59
2022-12-11T07:26:53.848Z,99318.72
2022-12-11T07:30:55.753Z,99304.41
2022-12-11T07:34:58.068Z,99307.53
2022-12-11T07:39:02.760Z,99326.59
2022-12-11T07:43:04.760Z,99324.84
2022-12-11T07:47:06.895Z,99319.19
2022-12-11T07:51:12.562Z,99325.38
2022-12-11T07:55:17.724Z,99322.19
2022-12-11T07:59:19.811Z,99325.78
2022-12-11T08:03:22.088Z,99322.56
2022-12-11T08:07:26.825Z,99326.88
2022-12-11T08:11:30.319Z,99320.09
2022-12-11T08:15:37.159Z,99331.09
2022-12-11T08:19:39.680Z,99316.41
2022-12-11T08:23:46.750Z,99322.47
2022-12-11T08:27:59.339Z,99309.84
2022-12-11T08:32:08.970Z,99314.78
2022-12-11T08:36:21.572Z,99323.03
2022-12-11T08:40:23.778Z,99320.47
2022-12-11T08:44:26.952Z,99301.22
2022-12-11T08:48:38.922Z,99300.47
2022-12-11T08:52:44.324Z,99305.00
2022-12-11T08:56:46.722Z,99312.22
2022-12-11T09:00:59.823Z,99311.84
2022-12-11T09:05:01.867Z,99315.13
2022-12-11T09:09:04.004Z,99310.91
2022-12-11T09:13:05.873Z,99313.56
2022-12-11T09:17:08.864Z,99323.22
2022-12-11T09:21:17.089Z,99317.97
2022-12-11T09:25:18.965Z,99317.72
2022-12-11T09:29:21.059Z,99313.03
2022-12-11T09:33:23.849Z,99310.72
2022-12-11T09:37:26.432Z,99305.38
2022-12-11T09:42:00.671Z,99299.56
2022-12-11T09:46:05.733Z,99320.78
2022-12-11T09:50:11.466Z,99311.84
2022-12-11T09:54:17.314Z,99311.22
2022-12-11T09:58:38.596Z,99300.78
2022-12-11T10:03:07.794Z,99305.97
2022-12-11T10:07:30.600Z,99301.41
2022-12-11T10:11:35.195Z,99292.09
2022-12-11T10:15:51.257Z,99298.31
2022-12-11T10:19:55.458Z,99280.81
2022-12-11T10:24:00.614Z,99268.53
2022-12-11T10:28:14.314Z,99264.03
2022-12-11T10:32:24.770Z,99270.38
2022-12-11T10:36:39.374Z,99260.03
2022-12-11T10:41:03.331Z,99272.72
2022-12-11T10:45:05.939Z,99272.78
2022-12-11T10:49:26.844Z,99252.47
2022-12-11T10:53:29.451Z,99270.59
2022-12-11T10:57:40.311Z,99254.53
2022-12-11T11:01:42.290Z,99252.19
2022-12-11T11:05:49.204Z,99249.94
2022-12-11T11:10:09.848Z,99242.00
2022-12-11T11:14:15.562Z,99243.00
2022-12-11T11:18:25.466Z,99231.59
2022-12-11T11:22:27.759Z,99227.19
2022-12-11T11:26:56.543Z,99222.75
2022-12-11T11:31:05.938Z,99211.53
2022-12-11T11:35:11.676Z,99228.19
2022-12-11T11:39:37.633Z,99224.19
2022-12-11T11:43:54.697Z,99203.91
2022-12-11T11:48:28.672Z,99206.78
2022-12-11T11:52:49.101Z,99210.41
2022-12-11T11:56:52.057Z,99207.22
2022-12-11T12:00:54.867Z,99186.84
2022-12-11T12:04:56.840Z,99180.03
2022-12-11T12:09:19.310Z,99187.41
2022-12-11T12:14:29.152Z,99191.94
2022-12-11T12:19:03.811Z,99182.25
2022-12-11T12:23:45.218Z,99190.63
2022-12-11T12:28:05.938Z,99170.66
2022-12-11T12:32:36.928Z,99184.16
2022-12-11T12:36:46.797Z,99185.50
2022-12-11T12:41:19.521Z,99176.97
2022-12-11T12:46:02.582Z,99173.56
2022-12-11T12:50:05.068Z,99172.03
2022-12-11T12:54:12.321Z,99174.19
2022-12-11T12:58:42.335Z,99165.25
2022-12-11T13:02:50.638Z,99160.81
2022-12-11T13:06:52.475Z,99161.34
2022-12-11T13:11:02.375Z,99155.59
2022-12-11T13:15:04.818Z,99154.72
2022-12-11T13:19:30.026Z,99166.84
2022-12-11T13:23:37.289Z,99156.22
2022-12-11T13:27:43.705Z,99162.00
2022-12-11T13:31:45.831Z,99162.09
2022-12-11T13:35:47.972Z,99162.31
2022-12-11T13:39:50.165Z,99166.53
2022-12-11T13:44:35.916Z,99172.00
2022-12-11T13:48:48.455Z,99178.66
2022-12-11T13:52:58.508Z,99175.53
2022-12-11T13:57:15.236Z,99185.78
2022-12-11T14:01:32.545Z,99187.44
2022-12-11T14:05:34.594Z,99172.59
2022-12-11T14:09:40.342Z,99172.47
2022-12-11T14:13:42.271Z,99171.34
2022-12-11T14:17:51.473Z,99172.47
2022-12-11T14:22:06.880Z,99182.06
2022-12-11T14:26:18.158Z,99198.19
2022-12-11T14:30:32.541Z,99172.28
2022-12-11T14:34:38.541Z,99181.97
2022-12-11T14:38:58.164Z,99181.31
2022-12-11T14:43:02.224Z,99181.75
2022-12-11T14:47:14.088Z,99196.72
2022-12-11T14:51:20.365Z,99191.38
2022-12-11T14:55:27.717Z,99208.16
2022-12-11T14:59:32.097Z,99191.38
2022-12-11T15:03:43.263Z,99192.44
2022-12-11T15:08:27.028Z,99190.53
2022-12-11T15:12:29.009Z,99208.84
2022-12-11T15:16:33.557Z,99199.59
2022-12-11T15:20:35.549Z,99197.13
2022-12-11T15:24:42.743Z,99201.88
2022-12-11T15:28:44.631Z,99196.91
2022-12-11T15:32:46.974Z,99201.50
2022-12-11T15:36:48.811Z,99201.69
2022-12-11T15:40:50.793Z,99194.34
2022-12-11T15:44:53.806Z,99181.84
2022-12-11T15:48:56.783Z,99206.75
2022-12-11T15:52:58.657Z,99202.69
2022-12-11T15:57:01.855Z,99194.34
2022-12-11T16:01:06.443Z,99196.09
2022-12-11T16:05:08.909Z,99203.44
2022-12-11T16:09:10.971Z,99199.41
2022-12-11T16:13:13.194Z,99210.22
2022-12-11T16:17:15.326Z,99206.84
2022-12-11T16:21:21.393Z,99203.84
2022-12-11T16:25:25.059Z,99203.44
2022-12-11T16:29:27.070Z,99205.09
2022-12-11T16:33:29.000Z,99204.44
2022-12-11T16:37:30.874Z,99211.41
2022-12-11T16:41:32.739Z,99202.53
2022-12-11T16:45:34.683Z,99206.81
2022-12-11T16:49:36.608Z,99205.25
2022-12-11T16:53:38.755Z,99197.88
2022-12-11T16:57:40.812Z,99201.53
2022-12-11T17:01:42.705Z,99208.47
2022-12-11T17:05:45.088Z,99211.06
2022-12-11T17:09:47.079Z,99197.66
2022-12-11T17:13:53.988Z,99217.03
2022-12-11T17:17:55.767Z,99211.59
2022-12-11T17:21:58.962Z,99212.81
2022-12-11T17:26:02.532Z,99219.13
2022-12-11T17:30:05.275Z,99214.47
2022-12-11T17:34:07.162Z,99213.25
2022-12-11T17:38:09.101Z,99197.88
2022-12-11T17:42:10.933Z,99205.00
2022-12-11T17:46:13.179Z,99202.81
2022-12-11T17:50:15.362Z,99209.38
2022-12-11T17:54:17.458Z,99219.19
2022-12-11T17:58:23.389Z,99213.59
2022-12-11T18:02:25.780Z,99218.78
2022-12-11T18:06:28.002Z,99211.00
2022-12-11T18:10:30.088Z,99209.34
2022-12-11T18:14:32.419Z,99208.19
2022-12-11T18:18:37.813Z,99211.56
2022-12-11T18:22:39.694Z,99206.06
2022-12-11T18:26:45.815Z,99211.50
2022-12-11T18:30:47.954Z,99212.59
2022-12-11T18:34:49.909Z,99212.66
2022-12-11T18:38:53.460Z,99212.91
2022-12-11T18:42:58.049Z,99210.84
2022-12-11T18:47:00.016Z,99210.09
2022-12-11T18:51:08.618Z,99208.28
2022-12-11T18:55:10.875Z,99213.88
2022-12-11T18:59:16.385Z,99205.72
2022-12-11T19:03:18.380Z,99207.97
2022-12-11T19:07:20.297Z,99198.72
2022-12-11T19:11:24.673Z,99197.09
2022-12-11T19:15:27.621Z,99188.75
2022-12-11T19:19:29.594Z,99191.88
2022-12-11T19:23:32.803Z,99196.56
2022-12-11T19:27:34.730Z,99195.91
2022-12-11T19:31:39.402Z,99204.16
2022-12-11T19:35:41.481Z,99195.91
2022-12-11T19:39:43.469Z,99193.53
2022-12-11T19:43:48.153Z,99202.50
2022-12-11T19:47:50.109Z,99210.69
2022-12-11T19:51:54.850Z,99206.84
2022-12-11T19:56:00.918Z,99208.06
2022-12-11T20:00:06.036Z,99193.94
2022-12-11T20:04:12.886Z,99198.97
2022-12-11T20:08:42.951Z,99189.63
2022-12-11T20:12:37.698Z,99198.41
2022-12-11T20:17:09.242Z,99192.19
2022-12-11T20:21:02.832Z,99197.28
2022-12-11T20:25:05.277Z,99200.69
2022-12-11T20:29:08.378Z,99195.28
2022-12-11T20:33:10.494Z,99195.03
2022-12-11T20:37:12.675Z,99201.69
2022-12-11T20:41:17.012Z,99202.06
2022-12-11T20:45:19.261Z,99199.53
2022-12-11T20:49:21.568Z,99192.19
2022-12-11T20:53:23.463Z,99199.97
2022-12-11T20:57:25.454Z,99205.09
2022-12-11T21:01:30.028Z,99212.91
2022-12-11T21:05:32.288Z,99205.00
2022-12-11T21:09:34.416Z,99194.47
2022-12-11T21:13:38.871Z,99197.13
2022-12-11T21:17:40.844Z,99185.19
2022-12-11T21:21:46.949Z,99183.75
2022-12-11T21:25:51.859Z,99184.44
2022-12-11T21:29:53.738Z,99198.22
2022-12-11T21:34:20.672Z,99186.09
2022-12-11T21:38:25.647Z,99182.16
2022-12-11T21:42:27.919Z,99179.50
2022-12-11T21:46:29.884Z,99176.03
2022-12-11T21:50:31.982Z,99170.34
2022-12-11T21:54:33.799Z,99176.31
2022-12-11T21:58:36.640Z,99166.97
2022-12-11T22:02:41.147Z,99165.25
2022-12-11T22:06:43.743Z,99170.00
2022-12-11T22:10:45.671Z,99159.13
2022-12-11T22:14:47.832Z,99159.03
2022-12-11T22:18:49.690Z,99174.59
2022-12-11T22:22:51.492Z,99170.28
2022-12-11T22:26:53.401Z,99164.88
2022-12-11T22:30:55.304Z,99164.31
2022-12-11T22:34:57.833Z,99163.91
2022-12-11T22:39:00.368Z,99160.19
2022-12-11T22:43:02.249Z,99156.25
2022-12-11T22:47:04.092Z,99158.75
2022-12-11T22:51:06.682Z,99167.28
2022-12-11T22:55:08.992Z,99166.41
2022-12-11T22:59:10.993Z,99175.63
2022-12-11T23:03:12.955Z,99166.53
2022-12-11T23:07:14.944Z,99188.88
2022-12-11T23:11:34.818Z,99179.16
2022-12-11T23:15:36.811Z,99178.88
2022-12-11T23:19:38.585Z,99173.75
2022-12-11T23:23:40.679Z,99183.38
2022-12-11T23:27:42.503Z,99170.84
2022-12-11T23:31:46.467Z,99187.41
2022-12-11T23:35:48.258Z,99185.47
2022-12-11T23:39:50.335Z,99186.75
2022-12-11T23:43:52.291Z,99186.41
2022-12-11T23:47:54.115Z,99189.56
2022-12-11T23:52:05.238Z,99188.47
2022-12-11T23:56:12.451Z,99178.06
